This is the latest recevied weather packets stored in our database for station/object G8PZT. If no packets are shown the sender has not sent any weather packets the latest 10 day(s).
| Time | Temp. | Humidity | Pressure | Rain* | Wind** | Luminosity | Snow |
|---|---|---|---|---|---|---|---|
| 1787478518 | 22.22° C | 20% | - | 0 mm | - | - | - |
| 1787478002 | 21.67° C | 20% | - | 0 mm | - | - | - |
| 1787477918 | 21.67° C | 20% | - | 0 mm | - | - | - |
| 1787477317 | 21.11° C | 20% | - | 0 mm | - | - | - |
| 1787476802 | 21.11° C | 21% | - | 0 mm | - | - | - |
| 1787476717 | 21.11° C | 21% | - | 0 mm | - | - | - |
| 1787476117 | 20° C | 21% | - | 0 mm | - | - | - |
| 1787475602 | 20° C | 23% | - | 0 mm | - | - | - |
| 1787475517 | 20° C | 23% | - | 0 mm | - | - | - |
| 1787474917 | 20° C | 24% | - | 0 mm | - | - | - |
| 1787474402 | 18.89° C | 29% | - | 0 mm | - | - | - |
| 1787474318 | 18.89° C | 28% | - | 0 mm | - | - | - |
| 1787473718 | 18.33° C | 32% | - | 0 mm | - | - | - |
| 1787473203 | 17.78° C | 34% | - | 0 mm | - | - | - |
| 1787473118 | 17.22° C | 35% | - | 0 mm | - | - | - |
| 1787472518 | 17.22° C | 37% | - | 0 mm | - | - | - |
| 1787472002 | 16.67° C | 42% | - | 0 mm | - | - | - |
| 1787471918 | 16.67° C | 42% | - | 0 mm | - | - | - |
| 1787470802 | 14.44° C | 53% | - | 0 mm | - | - | - |
| 1787470718 | 14.44° C | 54% | - | 0 mm | - | - | - |
| 1787470118 | 13.33° C | 61% | - | 0 mm | - | - | - |
| 1787469602 | 12.78° C | 66% | - | 0 mm | - | - | - |
| 1787469517 | 12.78° C | 66% | - | 0 mm | - | - | - |
| 1787468917 | 12.22° C | 71% | - | 0 mm | - | - | - |
| 1787468403 | 11.67° C | 74% | - | 0 mm | - | - | - |
* Rain latest hour (hover to see other rain measurements)
** Current wind speed in m/s (hover to see current wind gust speed)